Time;durP1;ratioP1;P1;durP2;ratioP2;P2;SDS_P1;SDS_P2;PMS_P1;PMS_P2;Temp;Humidity;BMP_temperature;BMP_pressure;BME280_temperature;BME280_humidity;BME280_pressure;Samples;Min_cycle;Max_cycle;Signal;HPM_P1;HPM_P2
2021/10/06 17:48:25;;;;;;;0.10;0.10;;;11.50;91.30;;;;;;5166483;27;20488;-79
2021/10/06 17:50:53;;;;;;;0.10;0.10;;;11.40;91.90;;;;;;5094807;28;20053;-79
2021/10/06 17:53:19;;;;;;;0.10;0.10;;;11.40;92.70;;;;;;5094339;28;20538;-79
2021/10/06 17:55:45;;;;;;;0.20;0.20;;;11.40;93.50;;;;;;5096671;28;20078;-79
2021/10/06 17:58:10;;;;;;;0.13;0.13;;;11.40;93.90;;;;;;5114977;28;20036;-79
2021/10/06 18:00:37;;;;;;;0.10;0.10;;;11.40;94.30;;;;;;5146277;28;20043;-78
2021/10/06 18:03:03;;;;;;;0.10;0.10;;;11.40;94.60;;;;;;5133851;28;20027;-79
2021/10/06 18:05:29;;;;;;;0.10;0.10;;;11.50;94.80;;;;;;5136919;28;20095;-80
2021/10/06 18:07:57;;;;;;;0.57;0.20;;;11.40;94.90;;;;;;5106259;28;20066;-79
2021/10/06 18:10:23;;;;;;;0.20;0.20;;;11.40;95.10;;;;;;5121377;28;20054;-79
2021/10/06 18:12:50;;;;;;;0.20;0.20;;;11.40;95.10;;;;;;5121102;28;20089;-79
2021/10/06 18:15:16;;;;;;;0.30;0.30;;;11.40;95.20;;;;;;5140325;28;20119;-79
2021/10/06 18:17:42;;;;;;;0.25;0.25;;;11.40;95.20;;;;;;5096419;28;20126;-79
2021/10/06 18:20:10;;;;;;;0.30;0.30;;;11.50;95.30;;;;;;5102535;28;20047;-79
2021/10/06 18:22:36;;;;;;;0.35;0.35;;;11.50;95.30;;;;;;5133215;28;20039;-81
2021/10/06 18:25:04;;;;;;;0.22;0.22;;;11.50;95.30;;;;;;5085211;28;20066;-80
2021/10/06 18:27:30;;;;;;;0.75;0.50;;;11.50;95.30;;;;;;5086787;28;20069;-80
2021/10/06 18:29:56;;;;;;;0.32;0.30;;;11.50;95.20;;;;;;5140670;28;20039;-79
2021/10/06 18:32:22;;;;;;;0.20;0.20;;;11.40;95.20;;;;;;5121530;28;20058;-80
2021/10/06 18:34:49;;;;;;;0.55;0.50;;;11.50;95.30;;;;;;5104174;28;20126;-80
2021/10/06 18:37:15;;;;;;;0.30;0.30;;;11.60;95.30;;;;;;5140534;28;20071;-80
2021/10/06 18:39:41;;;;;;;0.30;0.30;;;11.60;95.30;;;;;;5121804;28;20047;-80
2021/10/06 18:42:07;;;;;;;0.30;0.30;;;11.60;95.20;;;;;;5140676;28;20179;-80
2021/10/06 18:44:33;;;;;;;0.47;0.40;;;11.60;95.20;;;;;;5140033;28;20036;-80
2021/10/06 18:46:59;;;;;;;0.28;0.28;;;11.60;95.10;;;;;;5103499;28;20390;-79
2021/10/06 18:49:25;;;;;;;1.40;0.40;;;11.60;95.10;;;;;;5140615;28;20840;-80
2021/10/06 18:51:51;;;;;;;0.20;0.20;;;11.70;95.10;;;;;;5103348;28;20504;-80
2021/10/06 18:54:17;;;;;;;0.52;0.30;;;11.60;95.00;;;;;;5122027;28;20042;-80
2021/10/06 18:56:44;;;;;;;0.40;0.40;;;11.60;95.00;;;;;;5087379;28;20047;-79
2021/10/06 18:59:11;;;;;;;0.60;0.40;;;11.50;95.00;;;;;;5128786;28;20047;-80
2021/10/06 19:01:37;;;;;;;0.88;0.40;;;11.50;95.30;;;;;;5106793;28;20043;-80
2021/10/06 19:04:03;;;;;;;0.35;0.30;;;11.50;95.00;;;;;;5088893;28;20082;-79
2021/10/06 19:06:30;;;;;;;0.70;0.40;;;11.40;95.00;;;;;;5116037;28;20040;-81
2021/10/06 19:08:56;;;;;;;0.45;0.35;;;11.40;95.00;;;;;;5081382;28;20036;-81
2021/10/06 19:11:22;;;;;;;0.30;0.30;;;11.30;95.00;;;;;;5080058;28;20036;-81
2021/10/06 19:13:48;;;;;;;0.35;0.25;;;11.40;95.00;;;;;;5078956;28;20465;-78
2021/10/06 19:16:18;;;;;;;0.40;0.40;;;11.30;95.00;;;;;;5124230;28;20050;-79
2021/10/06 19:18:44;;;;;;;0.30;0.30;;;11.30;95.00;;;;;;5093877;28;20142;-79
2021/10/06 19:21:10;;;;;;;0.70;0.45;;;11.30;95.00;;;;;;5099653;28;20043;-78
2021/10/06 19:23:36;;;;;;;0.50;0.50;;;11.20;95.00;;;;;;5080126;28;20046;-78
2021/10/06 19:26:28;;;;;;;0.60;0.50;;;11.30;95.10;;;;;;5082408;28;20385;-82
2021/10/06 19:28:54;;;;;;;0.70;0.50;;;11.30;95.00;;;;;;5033832;28;20222;-80
2021/10/06 19:31:20;;;;;;;0.28;0.28;;;11.20;95.00;;;;;;5038729;28;20041;-80
2021/10/06 19:33:47;;;;;;;0.50;0.35;;;11.30;95.00;;;;;;5020293;28;20037;-80
2021/10/06 19:36:17;;;;;;;0.77;0.35;;;11.30;95.00;;;;;;5020561;28;20068;-81
2021/10/06 19:38:43;;;;;;;0.30;0.30;;;11.40;95.30;;;;;;4990831;28;20420;-80
2021/10/06 19:42:05;;;;;;;1.38;0.30;;;11.40;95.00;;;;;;4923805;29;20050;-80
2021/10/06 19:44:36;;;;;;;0.77;0.40;;;11.40;95.00;;;;;;4934873;29;20044;-79
2021/10/06 19:47:02;;;;;;;0.30;0.30;;;11.50;95.00;;;;;;4914637;29;20131;-81
2021/10/06 19:49:28;;;;;;;0.50;0.50;;;11.40;94.90;;;;;;4946594;29;20044;-79
2021/10/06 19:51:54;;;;;;;0.85;0.50;;;11.50;94.90;;;;;;4913409;29;20047;-79
2021/10/06 19:54:20;;;;;;;1.50;0.80;;;11.60;94.90;;;;;;4968686;28;20051;-78
2021/10/06 19:56:47;;;;;;;0.60;0.50;;;11.60;94.90;;;;;;4983341;28;20054;-79
2021/10/06 19:59:13;;;;;;;0.90;0.50;;;11.70;94.80;;;;;;4980978;28;20069;-77
2021/10/06 20:01:41;;;;;;;0.82;0.50;;;11.70;94.80;;;;;;4965381;28;20513;-79
2021/10/06 20:04:06;;;;;;;1.00;0.60;;;11.70;94.70;;;;;;4964993;28;20038;-79
2021/10/06 20:06:32;;;;;;;0.40;0.38;;;11.80;94.80;;;;;;4977998;28;20446;-80
2021/10/06 20:08:58;;;;;;;0.40;0.40;;;11.80;94.80;;;;;;4946966;28;20121;-82
2021/10/06 20:11:24;;;;;;;1.00;0.40;;;11.80;94.70;;;;;;4951706;28;20126;-81
2021/10/06 20:13:49;;;;;;;0.85;0.55;;;11.90;94.70;;;;;;5000163;28;20187;-80
2021/10/06 20:16:15;;;;;;;0.38;0.32;;;11.90;94.60;;;;;;4995747;28;20046;-81
2021/10/06 20:18:41;;;;;;;0.50;0.40;;;11.90;94.60;;;;;;5019281;28;20037;-79
2021/10/06 20:21:07;;;;;;;0.45;0.45;;;12.00;94.60;;;;;;5100257;28;20038;-79
2021/10/06 20:23:32;;;;;;;1.50;0.70;;;12.00;94.80;;;;;;5100712;28;20036;-79
2021/10/06 20:26:03;;;;;;;0.65;0.52;;;12.00;94.50;;;;;;5004919;28;20037;-80
2021/10/06 20:28:29;;;;;;;0.70;0.60;;;11.90;94.50;;;;;;5006229;28;20051;-80
2021/10/06 20:31:10;;;;;;;0.45;0.45;;;11.90;94.50;;;;;;5000385;28;20038;-79
2021/10/06 20:33:59;;;;;;;0.40;0.40;;;11.90;94.50;;;;;;4998908;28;20492;-79
2021/10/06 20:39:00;;;;;;;1.13;0.70;;;11.90;94.60;;;;;;5023128;28;20030;-80
2021/10/06 20:41:26;;;;;;;0.63;0.40;;;12.00;94.60;;;;;;5002884;28;20048;-80
2021/10/06 20:43:52;;;;;;;0.60;0.60;;;11.90;94.60;;;;;;5005787;28;20043;-80
2021/10/06 20:46:19;;;;;;;0.40;0.40;;;11.90;94.60;;;;;;4981563;28;20046;-81
2021/10/06 20:48:47;;;;;;;0.95;0.50;;;11.80;94.60;;;;;;4995117;28;20042;-80
2021/10/06 20:51:19;;;;;;;0.50;0.45;;;11.80;94.60;;;;;;5018984;28;20448;-82
2021/10/06 20:53:57;;;;;;;0.73;0.50;;;11.80;94.50;;;;;;5025232;28;20038;-82
2021/10/06 21:03:54;;;;;;;0.40;0.40;;;11.70;94.60;;;;;;5029666;28;20041;-81
2021/10/06 21:06:19;;;;;;;0.50;0.38;;;11.60;94.60;;;;;;4939203;28;20051;-80
2021/10/06 21:08:45;;;;;;;0.73;0.40;;;11.60;94.60;;;;;;4953942;28;20043;-81
2021/10/06 21:11:11;;;;;;;0.40;0.40;;;11.50;94.60;;;;;;4976900;28;20046;-80
2021/10/06 21:13:37;;;;;;;0.20;0.20;;;11.50;94.60;;;;;;5002903;28;20043;-80
2021/10/06 21:16:03;;;;;;;0.50;0.50;;;11.50;94.60;;;;;;4985510;28;20162;-80
2021/10/06 21:18:29;;;;;;;0.52;0.50;;;11.50;94.60;;;;;;4982502;28;20035;-80
2021/10/06 21:21:46;;;;;;;0.30;0.30;;;11.30;94.60;;;;;;4971084;28;20045;-80
2021/10/06 21:24:13;;;;;;;0.90;0.60;;;11.40;94.60;;;;;;4975685;28;20130;-79
2021/10/06 21:26:41;;;;;;;0.50;0.40;;;11.30;94.60;;;;;;4973232;28;20051;-80
2021/10/06 21:29:07;;;;;;;0.57;0.40;;;11.30;94.70;;;;;;4966456;28;20050;-78
2021/10/06 21:31:39;;;;;;;0.30;0.30;;;11.30;94.70;;;;;;4955715;28;20039;-80
2021/10/06 21:34:06;;;;;;;0.77;0.57;;;11.20;94.70;;;;;;4956095;28;20054;-79
2021/10/06 21:36:33;;;;;;;1.02;0.60;;;11.20;94.60;;;;;;4963815;28;20538;-79
2021/10/06 21:38:58;;;;;;;0.90;0.63;;;11.30;94.60;;;;;;5033871;28;20041;-80
2021/10/06 21:41:24;;;;;;;0.85;0.30;;;11.20;94.60;;;;;;5016830;28;20403;-80
2021/10/06 21:43:50;;;;;;;0.85;0.60;;;11.10;94.60;;;;;;5033949;28;20048;-79
2021/10/06 21:46:16;;;;;;;0.60;0.60;;;11.00;94.60;;;;;;5042595;28;20106;-80
2021/10/06 21:48:42;;;;;;;0.73;0.60;;;11.10;94.70;;;;;;5074303;28;20044;-79
2021/10/06 21:51:08;;;;;;;0.60;0.60;;;11.10;94.70;;;;;;5074120;28;20036;-79
2021/10/06 21:53:34;;;;;;;0.77;0.50;;;11.00;94.70;;;;;;5092156;28;20135;-79
2021/10/06 21:56:00;;;;;;;0.40;0.40;;;11.10;94.70;;;;;;5074102;28;20035;-78
2021/10/06 21:58:26;;;;;;;1.10;0.50;;;11.00;94.70;;;;;;5074136;28;20040;-79
2021/10/06 22:00:52;;;;;;;0.90;0.43;;;10.90;94.70;;;;;;5092691;28;20498;-79
2021/10/06 22:03:19;;;;;;;0.60;0.43;;;10.90;94.70;;;;;;5091353;28;20041;-79
2021/10/06 22:05:45;;;;;;;0.90;0.70;;;10.90;94.70;;;;;;5091270;28;20087;-80
2021/10/06 22:08:11;;;;;;;1.38;0.60;;;10.80;94.60;;;;;;5074488;28;20048;-79
2021/10/06 22:10:41;;;;;;;1.02;0.63;;;10.70;94.60;;;;;;5057330;28;20119;-80
2021/10/06 22:13:07;;;;;;;0.43;0.43;;;10.70;94.60;;;;;;5057379;28;20454;-79
2021/10/06 22:15:32;;;;;;;0.60;0.60;;;10.70;94.70;;;;;;5091030;28;20093;-79
2021/10/06 22:17:58;;;;;;;1.52;0.70;;;10.70;94.70;;;;;;5091800;28;20036;-79
2021/10/06 22:20:25;;;;;;;0.47;0.47;;;10.70;94.70;;;;;;5090790;28;20127;-79
2021/10/06 22:22:52;;;;;;;0.32;0.32;;;10.60;94.70;;;;;;5057903;28;20096;-80
2021/10/06 22:25:21;;;;;;;0.60;0.43;;;10.50;94.70;;;;;;5057089;28;20397;-80
2021/10/06 22:27:47;;;;;;;0.93;0.50;;;10.50;94.60;;;;;;5059283;28;20066;-81
2021/10/06 22:30:14;;;;;;;1.27;0.60;;;10.60;94.70;;;;;;5091344;28;20040;-79
2021/10/06 22:32:41;;;;;;;0.65;0.47;;;10.50;94.70;;;;;;5091985;28;20068;-79
2021/10/06 22:35:09;;;;;;;0.90;0.60;;;10.50;94.60;;;;;;5060554;28;20047;-79
2021/10/06 22:37:36;;;;;;;0.98;0.60;;;10.50;94.60;;;;;;5098335;28;20036;-78
2021/10/06 22:40:03;;;;;;;0.50;0.50;;;10.40;94.60;;;;;;5060772;28;20115;-81
2021/10/06 22:42:28;;;;;;;0.45;0.45;;;10.50;94.70;;;;;;5078106;28;20043;-79
2021/10/06 22:44:56;;;;;;;0.60;0.50;;;10.40;94.70;;;;;;5060842;28;20032;-79
2021/10/06 22:47:22;;;;;;;0.45;0.45;;;10.20;94.60;;;;;;5057039;28;20509;-82
2021/10/06 22:49:50;;;;;;;0.50;0.50;;;10.30;94.70;;;;;;5042255;28;20926;-80
2021/10/06 22:56:09;;;;;;;0.88;0.50;;;10.20;94.60;;;;;;4971349;28;20093;-82
2021/10/06 22:58:35;;;;;;;1.10;0.60;;;10.10;94.60;;;;;;4935298;29;20091;-82
2021/10/06 23:01:00;;;;;;;0.30;0.30;;;10.10;94.60;;;;;;4935516;29;20109;-82
2021/10/06 23:03:26;;;;;;;0.63;0.40;;;10.10;94.60;;;;;;4949477;29;20111;-82
2021/10/06 23:05:52;;;;;;;0.50;0.50;;;10.10;94.60;;;;;;4950673;29;20039;-83
2021/10/06 23:08:18;;;;;;;1.10;0.80;;;10.10;94.60;;;;;;4932271;29;20059;-82
2021/10/06 23:10:44;;;;;;;0.68;0.50;;;10.10;94.60;;;;;;4936122;29;20044;-82
2021/10/06 23:13:10;;;;;;;0.70;0.50;;;10.00;94.60;;;;;;4951969;29;20132;-82
2021/10/06 23:15:36;;;;;;;0.70;0.60;;;10.00;94.60;;;;;;4951295;29;20066;-82
2021/10/06 23:18:02;;;;;;;0.70;0.70;;;9.90;94.60;;;;;;4950754;29;20199;-82
2021/10/06 23:20:28;;;;;;;0.68;0.50;;;9.90;94.60;;;;;;4951403;29;20047;-82
2021/10/06 23:22:54;;;;;;;1.25;0.80;;;9.90;94.60;;;;;;4951370;28;20038;-82
2021/10/06 23:25:20;;;;;;;0.70;0.45;;;10.00;94.60;;;;;;4974560;28;20440;-83
2021/10/06 23:27:46;;;;;;;2.10;0.88;;;9.90;94.60;;;;;;4992601;28;20102;-82
2021/10/06 23:30:13;;;;;;;0.70;0.70;;;10.00;94.60;;;;;;4991997;28;20048;-83
2021/10/06 23:32:40;;;;;;;0.50;0.50;;;9.90;94.60;;;;;;5038974;28;20130;-83
2021/10/06 23:35:07;;;;;;;0.63;0.55;;;9.90;94.60;;;;;;5077850;28;20040;-83
2021/10/06 23:37:35;;;;;;;0.70;0.70;;;9.90;94.60;;;;;;5081082;28;20067;-82
2021/10/06 23:40:02;;;;;;;0.68;0.60;;;9.90;94.60;;;;;;5097613;28;20135;-82
2021/10/06 23:42:28;;;;;;;0.85;0.80;;;9.80;94.50;;;;;;5097850;28;20086;-82
2021/10/06 23:44:55;;;;;;;1.73;1.00;;;9.90;94.60;;;;;;5115339;28;20050;-82
2021/10/06 23:47:20;;;;;;;1.08;0.77;;;9.90;94.60;;;;;;5079824;28;20039;-82
2021/10/06 23:49:47;;;;;;;0.50;0.50;;;9.90;94.60;;;;;;5115134;28;20089;-82
2021/10/06 23:52:13;;;;;;;1.15;0.75;;;9.90;94.50;;;;;;5096689;28;20046;-82
2021/10/06 23:54:39;;;;;;;1.00;0.68;;;10.00;94.50;;;;;;5062987;28;20047;-82
2021/10/06 23:57:04;;;;;;;0.93;0.50;;;10.00;94.50;;;;;;5062809;28;20057;-82
2021/10/06 23:59:31;;;;;;;0.70;0.57;;;10.00;94.60;;;;;;5115443;28;20422;-82
